Mary D, Pennsylvania
Current Conditions -  °F | °C
As of 4:15 AM on Friday 19 Dec 2014 (Local Time) from KHZL Reporting Station
Overcast Overcast  
Wind Chill: 23°   Ceiling: 600
Heat Index: 30°   Visibility: 7mi
Dew Point: 28°   Wind: 7mph
Humidity: 93%   Direction: 280°W
Pressure: 29.98"   Gusts: NA
Location:  40.76°N, 76.06°W
Report Text: KHZL 190915Z AUTO 28006KT 7SM OVC006 M01/M02 A2998 RMK AO2
Loading
Personal Weather Stations






























Interactive Weather Map New forecast layout! Learn more

10-Day Weather Forecast

Advertisements
Track Severe Weather on mobile